createdAt,value
2022-08-17T00:00:43.678Z,13.43
2022-08-17T00:03:13.669Z,14.93
2022-08-17T00:05:49.636Z,14.27
2022-08-17T00:08:20.433Z,14.20
2022-08-17T00:10:50.636Z,15.70
2022-08-17T00:13:22.038Z,14.35
2022-08-17T00:15:51.031Z,15.25
2022-08-17T00:19:01.315Z,12.57
2022-08-17T00:21:11.386Z,12.52
2022-08-17T00:23:44.325Z,12.43
2022-08-17T00:26:43.551Z,14.52
2022-08-17T00:29:09.463Z,15.85
2022-08-17T00:31:47.928Z,14.77
2022-08-17T00:34:16.503Z,16.40
2022-08-17T00:36:46.655Z,16.13
2022-08-17T00:39:15.105Z,15.77
2022-08-17T00:41:43.726Z,15.65
2022-08-17T00:44:12.472Z,15.45
2022-08-17T00:46:43.133Z,17.20
2022-08-17T00:49:13.615Z,14.52
2022-08-17T00:51:45.564Z,14.23
2022-08-17T00:54:20.140Z,13.50
2022-08-17T00:56:52.124Z,13.60
2022-08-17T00:59:24.223Z,13.95
2022-08-17T01:01:53.936Z,13.45
2022-08-17T01:04:24.429Z,15.30
2022-08-17T01:06:53.707Z,14.57
2022-08-17T01:09:24.263Z,16.40
2022-08-17T01:11:53.226Z,17.15
2022-08-17T01:14:22.518Z,15.07
2022-08-17T01:16:52.721Z,14.85
2022-08-17T01:19:23.854Z,15.93
2022-08-17T01:21:56.445Z,15.60
2022-08-17T01:24:26.647Z,16.65
2022-08-17T01:26:56.513Z,15.60
2022-08-17T01:29:27.200Z,16.75
2022-08-17T01:31:58.732Z,15.23
2022-08-17T01:34:38.059Z,15.43
2022-08-17T01:37:13.984Z,15.80
2022-08-17T01:39:48.913Z,15.57
2022-08-17T01:42:24.186Z,16.63
2022-08-17T01:44:57.169Z,15.98
2022-08-17T01:47:25.782Z,16.85
2022-08-17T01:49:54.200Z,18.80
2022-08-17T01:52:24.021Z,15.35
2022-08-17T01:54:54.738Z,18.05
2022-08-17T01:59:51.428Z,18.33
2022-08-17T02:02:30.260Z,18.75
2022-08-17T02:05:01.090Z,18.80
2022-08-17T02:07:30.106Z,18.27
2022-08-17T02:10:00.744Z,18.25
2022-08-17T02:12:37.862Z,17.53
2022-08-17T02:15:09.047Z,19.17
2022-08-17T02:17:37.713Z,16.25
2022-08-17T02:20:08.041Z,14.85
2022-08-17T02:22:37.822Z,13.02
2022-08-17T02:25:10.959Z,13.40
2022-08-17T02:27:40.647Z,13.23
2022-08-17T02:30:59.243Z,14.90
2022-08-17T02:33:04.058Z,14.57
2022-08-17T02:35:34.826Z,16.38
2022-08-17T02:38:06.186Z,17.30
2022-08-17T02:40:37.226Z,17.27
2022-08-17T02:43:05.814Z,18.40
2022-08-17T02:45:37.677Z,18.67
2022-08-17T02:48:06.576Z,18.52
2022-08-17T02:50:35.128Z,18.52
2022-08-17T02:53:04.039Z,15.57
2022-08-17T02:55:36.901Z,16.10
2022-08-17T02:58:05.836Z,17.83
2022-08-17T03:00:37.029Z,18.88
2022-08-17T03:03:07.356Z,19.60
2022-08-17T03:05:39.340Z,19.90
2022-08-17T03:08:13.211Z,21.02
2022-08-17T03:10:45.136Z,20.38
2022-08-17T03:13:15.902Z,19.95
2022-08-17T03:15:46.560Z,21.63
2022-08-17T03:20:53.941Z,24.45
2022-08-17T03:23:24.331Z,23.23
2022-08-17T03:28:25.008Z,24.08
2022-08-17T03:30:53.938Z,24.30
2022-08-17T03:33:22.679Z,24.70
2022-08-17T03:35:51.843Z,25.10
2022-08-17T03:38:20.603Z,25.02
2022-08-17T03:40:58.410Z,23.23
2022-08-17T03:43:31.653Z,26.20
2022-08-17T03:46:27.724Z,26.90
2022-08-17T03:49:21.524Z,26.00
2022-08-17T03:52:07.545Z,24.90
2022-08-17T03:54:53.293Z,24.92
2022-08-17T03:57:21.927Z,22.42
2022-08-17T03:59:52.008Z,22.77
2022-08-17T04:02:23.350Z,24.13
2022-08-17T04:04:52.571Z,23.83
2022-08-17T04:07:22.226Z,24.63
2022-08-17T04:09:51.089Z,24.50
2022-08-17T04:12:21.662Z,24.17
2022-08-17T04:14:54.769Z,24.60
2022-08-17T04:17:26.471Z,24.45
2022-08-17T04:19:56.526Z,23.58
2022-08-17T04:22:31.184Z,25.25
2022-08-17T04:25:04.952Z,26.30
2022-08-17T04:27:33.670Z,24.75
2022-08-17T04:30:03.669Z,25.38
2022-08-17T04:32:59.307Z,23.17
2022-08-17T04:35:24.157Z,24.38
2022-08-17T04:37:53.312Z,26.90
2022-08-17T04:40:40.404Z,25.05
2022-08-17T04:43:11.038Z,24.05
2022-08-17T04:48:35.783Z,24.27
2022-08-17T04:51:10.124Z,24.67
2022-08-17T04:53:40.757Z,24.42
2022-08-17T04:56:11.719Z,24.27
2022-08-17T04:58:46.561Z,22.90
2022-08-17T05:01:23.781Z,24.77
2022-08-17T05:03:53.512Z,22.38
2022-08-17T05:06:22.247Z,24.77
2022-08-17T05:08:51.019Z,24.05
2022-08-17T05:11:19.851Z,22.67
2022-08-17T05:13:51.119Z,24.83
2022-08-17T05:16:22.678Z,23.00
2022-08-17T05:18:51.623Z,25.35
2022-08-17T05:21:21.381Z,23.48
2022-08-17T05:23:54.921Z,24.27
2022-08-17T05:26:25.975Z,25.05
2022-08-17T05:28:57.274Z,22.48
2022-08-17T05:31:30.744Z,24.70
2022-08-17T05:33:59.404Z,23.75
2022-08-17T05:36:42.154Z,23.27
2022-08-17T05:39:15.725Z,22.80
2022-08-17T05:41:47.590Z,22.77
2022-08-17T05:44:16.571Z,22.45
2022-08-17T05:46:50.390Z,22.63
2022-08-17T05:49:24.676Z,23.33
2022-08-17T05:52:19.757Z,22.15
2022-08-17T05:55:11.961Z,22.85
2022-08-17T05:57:54.180Z,21.85
2022-08-17T06:00:30.889Z,22.95
2022-08-17T06:03:23.902Z,22.48
2022-08-17T06:06:31.366Z,20.90
2022-08-17T06:09:12.740Z,21.02
2022-08-17T06:11:53.436Z,20.23
2022-08-17T06:14:40.780Z,21.30
2022-08-17T06:17:16.799Z,21.55
2022-08-17T06:19:52.505Z,18.90
2022-08-17T06:22:24.766Z,20.25
2022-08-17T06:24:59.009Z,20.45
2022-08-17T06:27:34.247Z,19.38
2022-08-17T06:30:09.427Z,20.27
2022-08-17T06:32:39.954Z,21.48
2022-08-17T06:37:57.586Z,20.65
2022-08-17T06:40:41.585Z,20.85
2022-08-17T06:43:24.662Z,21.33
2022-08-17T06:46:00.760Z,22.45
2022-08-17T06:48:42.862Z,21.05
2022-08-17T06:51:20.440Z,21.05
2022-08-17T06:53:54.243Z,19.98
2022-08-17T06:56:53.826Z,21.23
2022-08-17T06:59:26.899Z,20.33
2022-08-17T07:02:29.077Z,20.88
2022-08-17T07:05:14.663Z,21.20
2022-08-17T07:08:05.821Z,20.83
2022-08-17T07:10:40.833Z,19.75
2022-08-17T07:13:29.639Z,19.92
2022-08-17T07:16:09.846Z,19.83
2022-08-17T07:18:38.443Z,19.48
2022-08-17T07:21:20.731Z,19.42
2022-08-17T07:24:05.423Z,19.25
2022-08-17T07:26:34.106Z,18.48
2022-08-17T07:29:03.682Z,18.48
2022-08-17T07:31:33.864Z,17.25
2022-08-17T07:34:08.144Z,18.23
2022-08-17T07:36:36.885Z,18.05
2022-08-17T07:39:07.003Z,17.27
2022-08-17T07:41:53.068Z,17.35
2022-08-17T07:44:28.448Z,16.70
2022-08-17T07:47:15.472Z,17.73
2022-08-17T07:49:47.586Z,17.40
2022-08-17T07:52:51.882Z,17.95
2022-08-17T07:55:30.702Z,17.35
2022-08-17T07:58:00.480Z,18.90
2022-08-17T08:00:32.111Z,18.42
2022-08-17T08:03:06.560Z,17.40
2022-08-17T08:05:50.083Z,16.60
2022-08-17T08:08:38.947Z,16.65
2022-08-17T08:11:11.685Z,14.90
2022-08-17T08:13:44.023Z,16.15
2022-08-17T08:16:30.587Z,16.05
2022-08-17T08:19:01.207Z,13.73
2022-08-17T08:21:47.705Z,13.05
2022-08-17T08:24:37.866Z,13.55
2022-08-17T08:27:19.821Z,14.40
2022-08-17T08:29:54.427Z,12.75
2022-08-17T08:32:37.496Z,12.68
2022-08-17T08:35:10.011Z,12.90
2022-08-17T08:37:49.732Z,11.80
2022-08-17T08:40:38.548Z,11.60
2022-08-17T08:43:22.332Z,11.30
2022-08-17T08:45:58.907Z,11.07
2022-08-17T08:48:57.798Z,11.05
2022-08-17T08:51:39.891Z,10.63
2022-08-17T08:54:16.733Z,11.57
2022-08-17T08:57:23.114Z,10.95
2022-08-17T09:00:08.851Z,11.40
2022-08-17T09:03:04.031Z,11.13
2022-08-17T09:05:48.431Z,11.68
2022-08-17T09:08:26.267Z,10.02
2022-08-17T09:11:01.307Z,10.40
2022-08-17T09:13:39.451Z,10.18
2022-08-17T09:16:16.211Z,11.07
2022-08-17T09:19:03.527Z,10.45
2022-08-17T09:21:48.030Z,10.00
2022-08-17T09:24:25.979Z,10.13
2022-08-17T09:27:03.878Z,8.95
2022-08-17T09:29:35.564Z,8.52
2022-08-17T09:32:14.993Z,7.82
2022-08-17T09:34:50.947Z,9.33
2022-08-17T09:37:28.826Z,8.13
2022-08-17T09:40:09.709Z,8.35
2022-08-17T09:42:46.821Z,8.90
2022-08-17T09:45:29.263Z,8.93
2022-08-17T09:48:03.480Z,8.73
2022-08-17T09:51:03.610Z,9.20
2022-08-17T09:53:27.022Z,8.93
2022-08-17T09:56:18.848Z,8.68
2022-08-17T09:59:04.288Z,10.10
2022-08-17T10:01:40.118Z,8.77
2022-08-17T10:04:29.369Z,9.00
2022-08-17T10:07:08.476Z,9.57
2022-08-17T10:09:48.637Z,9.27
2022-08-17T10:12:30.264Z,8.85
2022-08-17T10:15:15.459Z,8.35
2022-08-17T10:17:57.319Z,9.02
2022-08-17T10:20:31.485Z,8.15
2022-08-17T10:23:36.882Z,8.45
2022-08-17T10:26:15.585Z,7.85
2022-08-17T10:28:51.390Z,8.85
2022-08-17T10:31:40.056Z,8.88
2022-08-17T10:34:41.238Z,9.38
2022-08-17T10:37:35.254Z,8.60
2022-08-17T10:40:20.527Z,8.80
2022-08-17T10:42:56.256Z,8.90
2022-08-17T10:45:29.763Z,9.23
2022-08-17T10:48:06.157Z,9.60
2022-08-17T10:50:59.024Z,9.38
2022-08-17T10:53:54.508Z,9.63
2022-08-17T10:56:26.356Z,9.35
2022-08-17T10:58:57.766Z,9.10
2022-08-17T11:02:04.043Z,9.38
2022-08-17T11:04:50.130Z,9.07
2022-08-17T11:07:34.061Z,9.93
2022-08-17T11:10:21.114Z,9.52
2022-08-17T11:13:01.309Z,8.90
2022-08-17T11:15:47.570Z,9.75
2022-08-17T11:18:45.387Z,10.00
2022-08-17T11:21:57.467Z,9.10
2022-08-17T11:24:35.631Z,8.77
2022-08-17T11:27:12.358Z,8.45
2022-08-17T11:29:56.769Z,8.30
2022-08-17T11:32:37.170Z,8.52
2022-08-17T11:35:30.586Z,7.93
2022-08-17T11:38:16.714Z,8.10
2022-08-17T11:41:07.223Z,8.75
2022-08-17T11:44:04.455Z,7.80
2022-08-17T11:47:06.546Z,8.30
2022-08-17T11:50:08.155Z,8.27
2022-08-17T11:52:40.486Z,7.80
2022-08-17T11:55:34.141Z,8.15
2022-08-17T11:58:03.707Z,7.43
2022-08-17T12:00:51.983Z,7.95
2022-08-17T12:03:25.026Z,7.53
2022-08-17T12:06:04.514Z,7.35
2022-08-17T12:08:35.767Z,7.10
2022-08-17T12:11:08.757Z,6.95
2022-08-17T12:13:48.111Z,7.13
2022-08-17T12:16:20.061Z,7.65
2022-08-17T12:18:54.009Z,7.28
2022-08-17T12:21:38.814Z,7.85
2022-08-17T12:24:16.666Z,7.65
2022-08-17T12:26:53.450Z,6.40
2022-08-17T12:29:35.467Z,7.70
2022-08-17T12:32:17.911Z,6.57
2022-08-17T12:34:48.016Z,7.53
2022-08-17T12:37:20.106Z,7.10
2022-08-17T12:39:54.185Z,7.05
2022-08-17T12:42:25.910Z,6.95
2022-08-17T12:44:54.606Z,6.82
2022-08-17T12:47:24.663Z,6.63
2022-08-17T12:50:29.033Z,6.32
2022-08-17T12:53:01.715Z,6.50
2022-08-17T12:55:36.449Z,6.22
2022-08-17T12:58:05.461Z,7.18
2022-08-17T13:00:38.215Z,7.38
2022-08-17T13:03:14.386Z,6.03
2022-08-17T13:05:48.634Z,7.18
2022-08-17T13:08:20.202Z,7.00
2022-08-17T13:10:57.730Z,7.45
2022-08-17T13:13:29.127Z,6.28
2022-08-17T13:16:00.825Z,6.57
2022-08-17T13:18:42.530Z,6.00
2022-08-17T13:21:22.414Z,6.38
2022-08-17T13:24:03.315Z,6.03
2022-08-17T13:26:35.585Z,6.63
2022-08-17T13:29:07.834Z,7.90
2022-08-17T13:31:52.379Z,6.20
2022-08-17T13:34:50.246Z,5.88
2022-08-17T13:37:33.734Z,6.82
2022-08-17T13:40:26.444Z,7.13
2022-08-17T13:42:56.772Z,6.88
2022-08-17T13:45:44.867Z,6.70
2022-08-17T13:48:21.448Z,6.93
2022-08-17T13:51:20.886Z,6.15
2022-08-17T13:53:55.026Z,6.53
2022-08-17T13:56:39.513Z,6.97
2022-08-17T13:59:12.567Z,6.50
2022-08-17T14:01:44.006Z,6.45
2022-08-17T14:04:15.000Z,7.05
2022-08-17T14:06:54.147Z,7.03
2022-08-17T14:09:25.444Z,7.18
2022-08-17T14:11:55.601Z,7.25
2022-08-17T14:14:24.666Z,7.43
2022-08-17T14:16:54.183Z,6.90
2022-08-17T14:19:23.264Z,7.20
2022-08-17T14:21:59.118Z,7.63
2022-08-17T14:24:30.603Z,6.95
2022-08-17T14:27:03.563Z,7.10
2022-08-17T14:29:34.524Z,7.43
2022-08-17T14:32:13.338Z,7.07
2022-08-17T14:34:42.405Z,6.32
2022-08-17T14:37:12.424Z,6.45
2022-08-17T14:39:41.074Z,6.85
2022-08-17T14:42:11.572Z,7.22
2022-08-17T14:44:40.367Z,6.18
2022-08-17T14:47:12.143Z,6.90
2022-08-17T14:49:40.649Z,7.03
2022-08-17T14:52:13.980Z,7.00
2022-08-17T14:54:45.836Z,6.57
2022-08-17T14:57:25.207Z,7.13
2022-08-17T15:00:03.522Z,6.22
2022-08-17T15:02:32.220Z,5.57
2022-08-17T15:05:02.120Z,6.15
2022-08-17T15:07:32.225Z,6.22
2022-08-17T15:10:02.493Z,6.10
2022-08-17T15:12:34.274Z,6.78
2022-08-17T15:15:05.332Z,6.40
2022-08-17T15:17:44.837Z,6.20
2022-08-17T15:20:16.902Z,6.65
2022-08-17T15:22:49.982Z,7.45
2022-08-17T15:25:22.344Z,6.68
2022-08-17T15:27:52.889Z,6.43
2022-08-17T15:30:22.044Z,6.55
2022-08-17T15:32:55.153Z,7.32
2022-08-17T15:35:27.718Z,6.63
2022-08-17T15:38:06.277Z,7.72
2022-08-17T15:40:37.704Z,7.63
2022-08-17T15:43:07.521Z,8.15
2022-08-17T15:45:36.075Z,8.10
2022-08-17T15:48:05.256Z,7.53
2022-08-17T15:50:33.849Z,8.82
2022-08-17T15:53:05.459Z,7.78
2022-08-17T15:55:36.711Z,8.57
2022-08-17T15:58:05.757Z,8.85
2022-08-17T16:00:44.102Z,8.43
2022-08-17T16:04:01.841Z,8.57
2022-08-17T16:06:12.011Z,8.73
2022-08-17T16:08:44.016Z,8.70
2022-08-17T16:11:14.358Z,7.10
2022-08-17T16:13:47.395Z,7.47
2022-08-17T16:16:24.576Z,7.82
2022-08-17T16:18:55.572Z,8.20
2022-08-17T16:21:31.171Z,8.13
2022-08-17T16:24:14.845Z,7.22
2022-08-17T16:26:43.800Z,7.10
2022-08-17T16:29:12.563Z,6.90
2022-08-17T16:31:42.036Z,6.90
2022-08-17T16:34:16.753Z,6.47
2022-08-17T16:36:55.385Z,6.53
2022-08-17T16:39:27.457Z,6.88
2022-08-17T16:41:56.783Z,7.18
2022-08-17T16:44:29.141Z,7.50
2022-08-17T16:46:58.818Z,6.43
2022-08-17T16:49:37.046Z,7.05
2022-08-17T16:52:10.563Z,7.47
2022-08-17T16:54:43.912Z,7.30
2022-08-17T16:57:13.558Z,7.60
2022-08-17T16:59:47.790Z,7.10
2022-08-17T17:02:18.094Z,7.00
2022-08-17T17:04:51.968Z,7.32
2022-08-17T17:07:39.243Z,7.05
2022-08-17T17:10:14.724Z,7.10
2022-08-17T17:13:03.619Z,7.32
2022-08-17T17:15:47.719Z,7.38
2022-08-17T17:18:18.064Z,7.65
2022-08-17T17:20:56.459Z,7.90
2022-08-17T17:23:43.137Z,7.05
2022-08-17T17:26:33.181Z,8.07
2022-08-17T17:29:15.304Z,8.35
2022-08-17T17:31:52.655Z,8.23
2022-08-17T17:34:22.396Z,8.07
2022-08-17T17:36:53.504Z,9.43
2022-08-17T17:39:43.836Z,9.02
2022-08-17T17:42:20.081Z,9.27
2022-08-17T17:44:52.778Z,8.48
2022-08-17T17:47:22.403Z,8.88
2022-08-17T17:49:51.758Z,9.17
2022-08-17T17:52:29.693Z,9.20
2022-08-17T17:55:08.929Z,10.07
2022-08-17T17:57:51.743Z,9.93
2022-08-17T18:00:24.818Z,8.95
2022-08-17T18:03:12.880Z,9.07
2022-08-17T18:05:50.022Z,8.45
2022-08-17T18:08:35.960Z,8.75
2022-08-17T18:11:24.118Z,7.82
2022-08-17T18:14:09.143Z,7.43
2022-08-17T18:16:42.898Z,8.32
2022-08-17T18:19:14.943Z,8.70
2022-08-17T18:21:48.643Z,8.52
2022-08-17T18:24:29.122Z,9.68
2022-08-17T18:29:36.517Z,10.27
2022-08-17T18:32:25.984Z,10.80
2022-08-17T18:34:56.843Z,10.00
2022-08-17T18:37:39.127Z,9.18
2022-08-17T18:40:33.084Z,10.73
2022-08-17T18:43:08.628Z,8.85
2022-08-17T18:45:43.323Z,9.27
2022-08-17T18:48:22.298Z,9.70
2022-08-17T18:50:53.349Z,9.43
2022-08-17T18:53:33.270Z,9.50
2022-08-17T18:56:22.900Z,9.48
2022-08-17T18:59:04.266Z,10.13
2022-08-17T19:02:16.118Z,8.82
2022-08-17T19:05:01.079Z,9.20
2022-08-17T19:07:32.313Z,10.18
2022-08-17T19:10:12.206Z,9.57
2022-08-17T19:12:45.487Z,10.90
2022-08-17T19:15:18.886Z,11.38
2022-08-17T19:17:53.794Z,11.63
2022-08-17T19:20:30.093Z,11.05
2022-08-17T19:23:11.675Z,9.60
2022-08-17T19:25:47.020Z,9.55
2022-08-17T19:28:24.239Z,9.02
2022-08-17T19:30:58.001Z,9.60
2022-08-17T19:33:28.519Z,10.27
2022-08-17T19:36:07.364Z,11.32
2022-08-17T19:38:45.379Z,12.55
2022-08-17T19:41:23.080Z,12.63
2022-08-17T19:44:27.299Z,12.07
2022-08-17T19:47:06.134Z,12.07
2022-08-17T19:49:46.899Z,12.55
2022-08-17T19:52:33.178Z,11.82
2022-08-17T19:55:08.177Z,10.48
2022-08-17T19:57:45.435Z,10.50
2022-08-17T20:00:17.556Z,8.40
2022-08-17T20:02:52.895Z,8.88
2022-08-17T20:05:27.149Z,8.63
2022-08-17T20:08:01.717Z,8.10
2022-08-17T20:10:39.642Z,7.75
2022-08-17T20:13:12.978Z,8.75
2022-08-17T20:15:43.707Z,7.18
2022-08-17T20:20:57.988Z,8.73
2022-08-17T20:23:44.184Z,8.23
2022-08-17T20:26:20.229Z,7.07
2022-08-17T20:29:37.555Z,7.60
2022-08-17T20:34:48.950Z,7.15
2022-08-17T20:37:35.471Z,7.35
2022-08-17T20:40:23.684Z,8.45
2022-08-17T20:42:52.524Z,9.93
2022-08-17T20:45:59.345Z,10.27
2022-08-17T20:48:38.284Z,9.43
2022-08-17T20:51:19.495Z,11.18
2022-08-17T20:54:23.526Z,11.02
2022-08-17T20:56:57.906Z,8.20
2022-08-17T21:00:01.542Z,6.03
2022-08-17T21:02:33.108Z,4.75
2022-08-17T21:05:30.333Z,7.53
2022-08-17T21:08:02.607Z,9.30
2022-08-17T21:10:39.506Z,8.65
2022-08-17T21:13:38.738Z,10.43
2022-08-17T21:16:24.863Z,9.25
2022-08-17T21:19:02.659Z,10.70
2022-08-17T21:21:42.664Z,8.93
2022-08-17T21:24:28.479Z,7.85
2022-08-17T21:27:09.639Z,7.95
2022-08-17T21:29:54.178Z,8.00
2022-08-17T21:32:31.275Z,7.47
2022-08-17T21:35:23.722Z,7.07
2022-08-17T21:37:55.383Z,8.55
2022-08-17T21:40:28.016Z,7.97
2022-08-17T21:43:01.826Z,8.18
2022-08-17T21:45:35.284Z,8.93
2022-08-17T21:48:14.485Z,10.73
2022-08-17T21:50:45.138Z,11.07
2022-08-17T21:53:23.118Z,10.82
2022-08-17T21:55:53.259Z,10.82
2022-08-17T21:58:31.383Z,10.65
2022-08-17T22:01:24.284Z,10.75
2022-08-17T22:04:20.098Z,10.02
2022-08-17T22:06:56.845Z,9.25
2022-08-17T22:09:29.077Z,10.68
2022-08-17T22:12:06.017Z,10.70
2022-08-17T22:14:52.345Z,9.32
2022-08-17T22:17:26.311Z,8.82
2022-08-17T22:19:57.493Z,7.88
2022-08-17T22:22:33.110Z,7.45
2022-08-17T22:25:04.310Z,9.60
2022-08-17T22:27:47.208Z,9.48
2022-08-17T22:30:20.995Z,10.30
2022-08-17T22:32:50.005Z,10.63
2022-08-17T22:35:42.081Z,11.65
2022-08-17T22:38:32.956Z,10.95
2022-08-17T22:41:37.111Z,11.48
2022-08-17T22:44:27.330Z,11.75
2022-08-17T22:47:02.067Z,11.65
2022-08-17T22:49:34.314Z,13.10
2022-08-17T22:52:09.311Z,14.07
2022-08-17T22:54:55.371Z,14.48
2022-08-17T22:57:51.711Z,12.07
2022-08-17T23:00:38.657Z,13.60
2022-08-17T23:03:25.679Z,13.88
2022-08-17T23:06:06.254Z,13.20
2022-08-17T23:08:38.852Z,13.05
2022-08-17T23:11:07.977Z,11.93
2022-08-17T23:13:38.381Z,11.80
2022-08-17T23:16:07.042Z,11.40
2022-08-17T23:18:37.612Z,12.23
2022-08-17T23:21:08.281Z,12.20
2022-08-17T23:23:42.005Z,13.40
2022-08-17T23:26:11.625Z,12.82
2022-08-17T23:28:41.245Z,12.98
2022-08-17T23:31:09.995Z,13.43
2022-08-17T23:33:41.731Z,12.77
2022-08-17T23:36:15.464Z,12.80
2022-08-17T23:38:46.910Z,13.40
2022-08-17T23:41:19.376Z,15.25
2022-08-17T23:43:53.083Z,16.02
2022-08-17T23:46:22.544Z,15.50
2022-08-17T23:48:53.618Z,15.60
2022-08-17T23:51:25.366Z,14.90
2022-08-17T23:54:00.481Z,16.00
2022-08-17T23:56:33.684Z,14.00
2022-08-17T23:59:02.984Z,12.65
